EmailTwitter


Observations de surface / France / LFBO (07630)

Régions: Québec | Canada | États-Unis | Europe | France | UK | Elsewhere
Station
Affichage
Infos & localisation pour LFBO (07630) | Aide pour décoder les METARs

Observations prises le 2017-03-24 à 11H30 UTC à TOULOUSE/BLAGNAC, FR (LFBO)

Etat du ciel: partiellement nuageux.

Température: 10.0 Celsius

Point de rosée: 5.0 Celsius

Humidité relative: 71%

Vents: Calme à 0 km/h ou 0 noeuds.

Pression au niveau moyen de la mer: 101.60 kilopascals.

Visibilité horizontale: 6.21 milles terrestres ou 9.94 kilomètres.

Hauteur du plafond: 579 mètres ( 1900 pieds ).

Observation METAR:

LFBO 241130Z AUTO 00000KT 9999 BKN019 BKN025 BKN110 10/05 Q1016 NOSIG=